Time;durP1;ratioP1;P1;durP2;ratioP2;P2;SDS_P1;SDS_P2;PMS_P1;PMS_P2;Temp;Humidity;BMP_temperature;BMP_pressure;BME280_temperature;BME280_humidity;BME280_pressure;Samples;Min_cycle;Max_cycle;Signal;HPM_P1;HPM_P2
2022/08/07 00:00:33;;;;;;;3.53;2.50;;;;;;;;;;4955352;28;20224;-37
2022/08/07 00:02:59;;;;;;;2.60;2.23;;;;;;;;;;4958167;28;20181;-37
2022/08/07 00:05:26;;;;;;;3.30;2.20;;;;;;;;;;4956206;28;20497;-36
2022/08/07 00:07:53;;;;;;;2.67;2.27;;;;;;;;;;4960492;28;20170;-36
2022/08/07 00:10:20;;;;;;;2.50;2.30;;;;;;;;;;4965869;28;20174;-37
2022/08/07 00:12:46;;;;;;;3.20;2.33;;;;;;;;;;4955769;28;20186;-37
2022/08/07 00:15:12;;;;;;;3.10;2.70;;;;;;;;;;4957720;28;20179;-37
2022/08/07 00:17:38;;;;;;;3.60;2.70;;;;;;;;;;4954173;28;20268;-37
2022/08/07 00:20:05;;;;;;;3.40;2.17;;;;;;;;;;4953473;28;20242;-36
2022/08/07 00:22:31;;;;;;;4.03;2.30;;;;;;;;;;4957458;28;20333;-36
2022/08/07 00:24:57;;;;;;;3.90;2.60;;;;;;;;;;4958269;28;20191;-37
2022/08/07 00:27:23;;;;;;;2.20;2.00;;;;;;;;;;4955945;28;20219;-37
2022/08/07 00:29:50;;;;;;;2.50;2.30;;;;;;;;;;4958287;28;20174;-37
2022/08/07 00:32:16;;;;;;;2.80;2.37;;;;;;;;;;4956566;28;20178;-37
2022/08/07 00:34:42;;;;;;;2.57;2.27;;;;;;;;;;4956874;28;20182;-37
2022/08/07 00:37:08;;;;;;;3.93;2.43;;;;;;;;;;4958411;28;20195;-36
2022/08/07 00:39:35;;;;;;;4.50;2.83;;;;;;;;;;4955095;28;20789;-37
2022/08/07 00:42:02;;;;;;;5.53;3.03;;;;;;;;;;4956898;28;20654;-37
2022/08/07 00:44:28;;;;;;;5.57;3.00;;;;;;;;;;4958635;28;20264;-37
2022/08/07 00:46:55;;;;;;;3.87;3.00;;;;;;;;;;4955423;28;20726;-36
2022/08/07 00:49:21;;;;;;;5.50;3.33;;;;;;;;;;4956735;28;20206;-36
2022/08/07 00:51:47;;;;;;;6.40;3.30;;;;;;;;;;4958264;28;20748;-37
2022/08/07 00:54:14;;;;;;;5.17;3.30;;;;;;;;;;4956054;28;20178;-37
2022/08/07 00:56:40;;;;;;;4.40;3.00;;;;;;;;;;4958236;28;20918;-36
2022/08/07 00:59:07;;;;;;;4.73;3.17;;;;;;;;;;4956273;28;20182;-37
2022/08/07 01:01:34;;;;;;;4.83;2.90;;;;;;;;;;4954452;28;20194;-36
2022/08/07 01:04:00;;;;;;;4.40;2.77;;;;;;;;;;4957576;28;20252;-37
2022/08/07 01:06:26;;;;;;;3.13;2.50;;;;;;;;;;4959154;28;20190;-37
2022/08/07 01:08:53;;;;;;;4.30;3.00;;;;;;;;;;4966461;28;20289;-37
2022/08/07 01:11:19;;;;;;;5.03;3.10;;;;;;;;;;4955475;28;20731;-36
2022/08/07 01:13:45;;;;;;;4.03;3.20;;;;;;;;;;4958911;28;20178;-36
2022/08/07 01:16:11;;;;;;;4.70;2.70;;;;;;;;;;4956060;28;20219;-36
2022/08/07 01:18:37;;;;;;;4.03;3.10;;;;;;;;;;4953832;28;20190;-37
2022/08/07 01:21:10;;;;;;;4.40;3.10;;;;;;;;;;4958890;28;20183;-36
2022/08/07 01:23:37;;;;;;;5.27;2.97;;;;;;;;;;4958372;28;20252;-36
2022/08/07 01:26:04;;;;;;;4.70;3.20;;;;;;;;;;4955216;28;20248;-37
2022/08/07 01:28:30;;;;;;;6.67;2.80;;;;;;;;;;4956132;28;20220;-37
2022/08/07 01:30:56;;;;;;;4.13;3.27;;;;;;;;;;4958575;28;20376;-36
2022/08/07 01:33:23;;;;;;;4.53;3.10;;;;;;;;;;4955619;28;20641;-37
2022/08/07 01:35:49;;;;;;;3.90;2.80;;;;;;;;;;4956014;28;20208;-37
2022/08/07 01:38:16;;;;;;;3.10;2.70;;;;;;;;;;4958464;28;20862;-36
2022/08/07 01:40:43;;;;;;;3.57;3.00;;;;;;;;;;4955675;28;20341;-37
2022/08/07 01:43:09;;;;;;;5.47;2.90;;;;;;;;;;4963284;28;20568;-36
2022/08/07 01:45:35;;;;;;;4.13;2.70;;;;;;;;;;4954143;28;20277;-37
2022/08/07 01:48:02;;;;;;;4.10;2.60;;;;;;;;;;4956045;28;20686;-37
2022/08/07 01:50:29;;;;;;;4.50;2.50;;;;;;;;;;4968476;28;20222;-37
2022/08/07 01:52:56;;;;;;;2.70;2.03;;;;;;;;;;4957472;28;20629;-36
2022/08/07 01:55:33;;;;;;;3.20;1.90;;;;;;;;;;4957659;28;20175;-36
2022/08/07 01:58:00;;;;;;;3.77;2.23;;;;;;;;;;4957265;28;20509;-36
2022/08/07 02:00:27;;;;;;;3.93;2.10;;;;;;;;;;4958130;28;20256;-36
2022/08/07 02:02:55;;;;;;;2.27;2.07;;;;;;;;;;4960951;28;20186;-36
2022/08/07 02:05:32;;;;;;;2.20;2.00;;;;;;;;;;4960253;28;20174;-36
2022/08/07 02:08:00;;;;;;;2.43;1.90;;;;;;;;;;4957918;28;20188;-37
2022/08/07 02:10:27;;;;;;;3.20;2.00;;;;;;;;;;4959795;28;20458;-37
2022/08/07 02:12:55;;;;;;;3.33;1.90;;;;;;;;;;4962871;28;21079;-36
2022/08/07 02:15:23;;;;;;;2.77;1.83;;;;;;;;;;4958494;28;20289;-37
2022/08/07 02:17:50;;;;;;;3.87;2.10;;;;;;;;;;4958341;28;20277;-36
2022/08/07 02:20:17;;;;;;;3.13;2.17;;;;;;;;;;4957195;28;20757;-36
2022/08/07 02:22:44;;;;;;;2.50;1.83;;;;;;;;;;4960418;28;20190;-37
2022/08/07 02:25:11;;;;;;;2.30;2.10;;;;;;;;;;4961751;28;20179;-36
2022/08/07 02:27:38;;;;;;;2.00;1.80;;;;;;;;;;4956882;28;20938;-37
2022/08/07 02:30:05;;;;;;;2.30;1.90;;;;;;;;;;4959670;28;20173;-36
2022/08/07 02:32:32;;;;;;;3.37;2.20;;;;;;;;;;4975534;28;20528;-36
2022/08/07 02:34:59;;;;;;;2.37;2.00;;;;;;;;;;4958185;28;20174;-36
2022/08/07 02:37:26;;;;;;;3.87;2.20;;;;;;;;;;4959534;28;20221;-37
2022/08/07 02:39:54;;;;;;;2.20;2.00;;;;;;;;;;4961463;28;20262;-36
2022/08/07 02:42:20;;;;;;;3.13;2.00;;;;;;;;;;4960045;28;20216;-36
2022/08/07 02:44:49;;;;;;;2.30;1.97;;;;;;;;;;4960364;28;20191;-37
2022/08/07 02:47:16;;;;;;;2.00;1.80;;;;;;;;;;4960484;28;20267;-37
2022/08/07 02:49:43;;;;;;;1.80;1.70;;;;;;;;;;4957510;28;20181;-36
2022/08/07 02:52:11;;;;;;;2.20;1.90;;;;;;;;;;4959383;28;20174;-36
2022/08/07 02:54:39;;;;;;;2.10;1.90;;;;;;;;;;4975166;28;20438;-36
2022/08/07 02:57:06;;;;;;;2.40;1.97;;;;;;;;;;4955292;28;20308;-36
2022/08/07 02:59:33;;;;;;;2.40;2.20;;;;;;;;;;4958202;28;20265;-37
2022/08/07 03:01:59;;;;;;;3.70;2.17;;;;;;;;;;4959551;28;20483;-36
2022/08/07 03:04:26;;;;;;;2.80;2.40;;;;;;;;;;4958232;28;20630;-36
2022/08/07 03:06:52;;;;;;;3.37;2.33;;;;;;;;;;4960913;28;21022;-37
2022/08/07 03:09:20;;;;;;;4.20;2.20;;;;;;;;;;4958943;28;20273;-37
2022/08/07 03:11:47;;;;;;;3.13;2.37;;;;;;;;;;4959334;28;20997;-36
2022/08/07 03:14:14;;;;;;;4.23;2.90;;;;;;;;;;4962671;28;20461;-37
2022/08/07 03:16:41;;;;;;;2.70;2.50;;;;;;;;;;4956367;28;20193;-35
2022/08/07 03:19:08;;;;;;;2.40;2.20;;;;;;;;;;4956098;28;20174;-35
2022/08/07 03:21:34;;;;;;;2.67;2.40;;;;;;;;;;4958169;28;20749;-36
2022/08/07 03:24:00;;;;;;;3.47;2.40;;;;;;;;;;4959191;28;20177;-36
2022/08/07 03:26:31;;;;;;;2.73;2.53;;;;;;;;;;4957960;28;20310;-36
2022/08/07 03:28:58;;;;;;;5.73;3.27;;;;;;;;;;4960319;28;20326;-36
2022/08/07 03:31:26;;;;;;;3.77;3.37;;;;;;;;;;4960735;28;20170;-36
2022/08/07 03:33:55;;;;;;;5.60;3.27;;;;;;;;;;4958362;28;20621;-36
2022/08/07 03:36:23;;;;;;;4.37;3.57;;;;;;;;;;4957386;28;20474;-36
2022/08/07 03:38:50;;;;;;;3.87;3.37;;;;;;;;;;4959753;28;20198;-36
2022/08/07 03:41:16;;;;;;;7.10;3.97;;;;;;;;;;4957584;28;20476;-36
2022/08/07 03:43:43;;;;;;;4.40;3.80;;;;;;;;;;4957010;28;20756;-36
2022/08/07 03:46:10;;;;;;;3.83;3.50;;;;;;;;;;4958240;28;20280;-36
2022/08/07 03:48:36;;;;;;;4.63;4.03;;;;;;;;;;4959252;28;20886;-36
2022/08/07 03:51:03;;;;;;;5.60;4.57;;;;;;;;;;4958807;28;20462;-36
2022/08/07 03:53:29;;;;;;;5.00;4.60;;;;;;;;;;4959262;28;20424;-36
2022/08/07 03:55:56;;;;;;;5.20;4.13;;;;;;;;;;4955361;28;20441;-36
2022/08/07 03:58:22;;;;;;;5.07;4.20;;;;;;;;;;4954269;28;20174;-36
2022/08/07 04:00:49;;;;;;;4.50;3.87;;;;;;;;;;4958712;28;20760;-36
2022/08/07 04:03:16;;;;;;;4.40;3.77;;;;;;;;;;4956754;28;20178;-36
2022/08/07 04:05:42;;;;;;;4.37;3.97;;;;;;;;;;4959613;28;20174;-36
2022/08/07 04:08:12;;;;;;;3.73;3.40;;;;;;;;;;4958708;28;20629;-36
2022/08/07 04:10:42;;;;;;;4.17;3.63;;;;;;;;;;4956291;28;20868;-35
2022/08/07 04:13:11;;;;;;;3.77;3.37;;;;;;;;;;4957802;28;20174;-36
2022/08/07 04:15:37;;;;;;;4.57;3.50;;;;;;;;;;4955937;28;20174;-35
2022/08/07 04:18:03;;;;;;;4.43;3.53;;;;;;;;;;4956016;28;20394;-35
2022/08/07 04:20:29;;;;;;;3.90;3.50;;;;;;;;;;4956890;28;20170;-36
2022/08/07 04:22:55;;;;;;;4.10;3.70;;;;;;;;;;4956586;28;20610;-36
2022/08/07 04:25:22;;;;;;;5.07;4.17;;;;;;;;;;4955814;28;20289;-36
2022/08/07 04:27:48;;;;;;;3.23;2.93;;;;;;;;;;4958512;28;20202;-36
2022/08/07 04:30:15;;;;;;;3.70;3.40;;;;;;;;;;4959865;28;20173;-36
2022/08/07 04:32:41;;;;;;;4.73;3.83;;;;;;;;;;4955540;28;20257;-36
2022/08/07 04:35:08;;;;;;;3.87;3.03;;;;;;;;;;4955549;28;20170;-36
2022/08/07 04:37:34;;;;;;;3.57;3.27;;;;;;;;;;4958658;28;21463;-36
2022/08/07 04:40:01;;;;;;;5.10;3.47;;;;;;;;;;4954055;28;20186;-36
2022/08/07 04:42:30;;;;;;;4.27;3.87;;;;;;;;;;4957615;28;20569;-36
2022/08/07 04:44:57;;;;;;;3.80;3.40;;;;;;;;;;4958817;28;20543;-36
2022/08/07 04:47:42;;;;;;;5.07;3.87;;;;;;;;;;4955449;28;20846;-36
2022/08/07 04:50:13;;;;;;;3.97;3.30;;;;;;;;;;4958377;28;20408;-36
2022/08/07 04:52:46;;;;;;;3.40;3.10;;;;;;;;;;4955932;28;20611;-36
2022/08/07 04:55:20;;;;;;;3.60;3.30;;;;;;;;;;4955185;28;20610;-36
2022/08/07 04:57:54;;;;;;;3.90;3.20;;;;;;;;;;4957513;28;20182;-36
2022/08/07 05:00:24;;;;;;;3.80;3.40;;;;;;;;;;4957417;28;20177;-36
2022/08/07 05:02:56;;;;;;;4.17;3.77;;;;;;;;;;4954936;28;20866;-36
2022/08/07 05:05:24;;;;;;;3.23;2.93;;;;;;;;;;4959202;28;20238;-36
2022/08/07 05:08:12;;;;;;;4.40;3.30;;;;;;;;;;4956551;28;20240;-36
2022/08/07 05:10:40;;;;;;;3.53;3.23;;;;;;;;;;4954965;28;21015;-36
2022/08/07 05:13:08;;;;;;;6.10;3.30;;;;;;;;;;4954249;28;20174;-36
2022/08/07 05:15:39;;;;;;;4.57;3.33;;;;;;;;;;4958803;28;20265;-36
2022/08/07 05:18:08;;;;;;;4.27;3.60;;;;;;;;;;4953849;28;20265;-36
2022/08/07 05:20:44;;;;;;;4.33;3.47;;;;;;;;;;4955385;28;20171;-36
2022/08/07 05:23:20;;;;;;;5.60;3.30;;;;;;;;;;4954169;28;20420;-36
2022/08/07 05:25:46;;;;;;;3.40;3.10;;;;;;;;;;4957054;28;20720;-36
2022/08/07 05:28:14;;;;;;;3.13;2.70;;;;;;;;;;4953901;28;20174;-36
2022/08/07 05:30:40;;;;;;;4.30;3.57;;;;;;;;;;4956096;28;20201;-36
2022/08/07 05:33:07;;;;;;;4.33;3.00;;;;;;;;;;4959283;28;20174;-36
2022/08/07 05:35:34;;;;;;;4.07;3.03;;;;;;;;;;4957243;28;20496;-36
2022/08/07 05:38:01;;;;;;;4.77;3.00;;;;;;;;;;4953035;28;20272;-35
2022/08/07 05:40:28;;;;;;;4.50;3.47;;;;;;;;;;4957455;28;20284;-36
2022/08/07 05:42:54;;;;;;;6.60;3.73;;;;;;;;;;4959631;28;20178;-35
2022/08/07 05:45:21;;;;;;;5.27;3.50;;;;;;;;;;4956858;28;20706;-35
2022/08/07 05:47:47;;;;;;;3.30;3.00;;;;;;;;;;4952642;28;20232;-35
2022/08/07 05:50:14;;;;;;;3.27;2.97;;;;;;;;;;4958236;28;20216;-36
2022/08/07 05:52:40;;;;;;;3.93;3.00;;;;;;;;;;4956861;28;20170;-36
2022/08/07 05:55:07;;;;;;;3.90;3.40;;;;;;;;;;4953755;28;20504;-36
2022/08/07 05:57:34;;;;;;;9.13;3.43;;;;;;;;;;4954354;28;20182;-36
2022/08/07 06:00:01;;;;;;;3.70;3.40;;;;;;;;;;4958179;28;20296;-37
2022/08/07 06:02:30;;;;;;;5.60;3.50;;;;;;;;;;4954431;28;20276;-36
2022/08/07 06:04:57;;;;;;;5.07;3.40;;;;;;;;;;4956802;28;20185;-36
2022/08/07 06:07:23;;;;;;;5.80;3.67;;;;;;;;;;4957484;28;20485;-36
2022/08/07 06:09:50;;;;;;;4.73;3.40;;;;;;;;;;4957033;28;20561;-36
2022/08/07 06:12:16;;;;;;;7.93;3.83;;;;;;;;;;4956135;28;20518;-36
2022/08/07 06:14:42;;;;;;;5.33;3.67;;;;;;;;;;4955868;28;20876;-36
2022/08/07 06:17:11;;;;;;;6.07;3.60;;;;;;;;;;4952348;28;20551;-36
2022/08/07 06:19:38;;;;;;;5.27;4.20;;;;;;;;;;4954889;28;20417;-37
2022/08/07 06:22:04;;;;;;;4.53;3.50;;;;;;;;;;4954543;28;20193;-36
2022/08/07 06:24:30;;;;;;;4.93;3.63;;;;;;;;;;4953927;28;20761;-36
2022/08/07 06:26:56;;;;;;;4.90;3.23;;;;;;;;;;4955171;28;20202;-36
2022/08/07 06:29:26;;;;;;;4.03;3.00;;;;;;;;;;4958095;28;20178;-36
2022/08/07 06:31:52;;;;;;;5.37;3.00;;;;;;;;;;4955927;28;20220;-36
2022/08/07 06:34:18;;;;;;;3.50;3.20;;;;;;;;;;4954642;28;20174;-36
2022/08/07 06:36:44;;;;;;;4.47;3.30;;;;;;;;;;4955675;28;20629;-35
2022/08/07 06:39:10;;;;;;;5.30;4.00;;;;;;;;;;4954180;28;20619;-36
2022/08/07 06:41:42;;;;;;;5.73;3.90;;;;;;;;;;4955378;28;20610;-36
2022/08/07 06:44:10;;;;;;;5.47;4.20;;;;;;;;;;4959358;28;20171;-36
2022/08/07 06:46:37;;;;;;;4.97;4.10;;;;;;;;;;4960511;28;20256;-36
2022/08/07 06:49:04;;;;;;;4.77;4.13;;;;;;;;;;4958309;28;20177;-36
2022/08/07 06:51:33;;;;;;;4.77;4.33;;;;;;;;;;4956379;28;20182;-36
2022/08/07 06:54:02;;;;;;;9.77;4.60;;;;;;;;;;4956300;28;20782;-36
2022/08/07 06:56:46;;;;;;;8.07;4.43;;;;;;;;;;4958129;28;20519;-36
2022/08/07 06:59:20;;;;;;;6.07;3.93;;;;;;;;;;4974188;28;20189;-36
2022/08/07 07:01:48;;;;;;;6.20;4.47;;;;;;;;;;4963320;28;20792;-36
2022/08/07 07:04:14;;;;;;;8.97;4.90;;;;;;;;;;4962820;28;20418;-35
2022/08/07 07:06:40;;;;;;;10.07;6.03;;;;;;;;;;4959022;28;20515;-34
2022/08/07 07:09:33;;;;;;;6.73;5.90;;;;;;;;;;4957493;28;20217;-38
2022/08/07 07:12:08;;;;;;;11.10;6.90;;;;;;;;;;4955629;28;20265;-36
2022/08/07 07:14:37;;;;;;;11.90;8.00;;;;;;;;;;4957780;28;20275;-36
2022/08/07 07:17:06;;;;;;;10.60;7.03;;;;;;;;;;4956025;28;20368;-36
2022/08/07 07:19:35;;;;;;;8.27;5.67;;;;;;;;;;4957459;28;20325;-38
2022/08/07 07:22:02;;;;;;;7.57;5.63;;;;;;;;;;4960017;28;20252;-36
2022/08/07 07:24:28;;;;;;;8.53;6.20;;;;;;;;;;4954649;28;20170;-37
2022/08/07 07:26:56;;;;;;;7.10;5.60;;;;;;;;;;4956972;28;20205;-39
2022/08/07 07:29:24;;;;;;;11.27;5.87;;;;;;;;;;4958732;28;20733;-37
2022/08/07 07:31:54;;;;;;;9.53;6.30;;;;;;;;;;4953890;28;20186;-35
2022/08/07 07:34:23;;;;;;;10.93;7.47;;;;;;;;;;4958071;28;20178;-37
2022/08/07 07:36:50;;;;;;;10.10;7.07;;;;;;;;;;4959020;28;21028;-37
2022/08/07 07:39:17;;;;;;;12.13;7.97;;;;;;;;;;4954603;28;20300;-36
2022/08/07 07:41:44;;;;;;;10.60;7.53;;;;;;;;;;4957528;28;20170;-35
2022/08/07 07:44:11;;;;;;;11.80;6.73;;;;;;;;;;4959264;28;20174;-34
2022/08/07 07:46:39;;;;;;;7.30;6.60;;;;;;;;;;4955958;28;20926;-35
2022/08/07 07:49:06;;;;;;;10.77;7.00;;;;;;;;;;4955117;28;20852;-36
2022/08/07 07:51:33;;;;;;;9.10;6.70;;;;;;;;;;4957782;28;20651;-36
2022/08/07 07:53:59;;;;;;;10.73;6.20;;;;;;;;;;4956012;28;20678;-38
2022/08/07 07:56:25;;;;;;;9.07;6.60;;;;;;;;;;4955685;28;20312;-38
2022/08/07 07:58:53;;;;;;;9.13;6.70;;;;;;;;;;4958288;28;20297;-39
2022/08/07 08:01:21;;;;;;;9.10;6.97;;;;;;;;;;4956929;28;20224;-38
2022/08/07 08:03:48;;;;;;;7.00;6.30;;;;;;;;;;4954473;28;20189;-41
2022/08/07 08:06:15;;;;;;;8.13;6.40;;;;;;;;;;4953889;28;20254;-40
2022/08/07 08:08:42;;;;;;;9.13;6.43;;;;;;;;;;4953828;28;20170;-40
2022/08/07 08:11:08;;;;;;;9.90;7.40;;;;;;;;;;4953782;28;20171;-38
2022/08/07 08:13:35;;;;;;;7.63;6.70;;;;;;;;;;4953631;28;20496;-41
2022/08/07 08:16:02;;;;;;;7.13;6.43;;;;;;;;;;4956755;28;20249;-41
2022/08/07 08:18:29;;;;;;;9.23;6.50;;;;;;;;;;4955091;28;20493;-41
2022/08/07 08:20:56;;;;;;;7.40;6.70;;;;;;;;;;4948921;28;20535;-41
2022/08/07 08:28:53;;;;;;;11.07;9.00;;;;;;;;;;4952456;28;20525;-42
2022/08/07 08:31:24;;;;;;;9.87;8.97;;;;;;;;;;4956199;28;20352;-40
2022/08/07 08:33:52;;;;;;;10.50;8.93;;;;;;;;;;4953882;28;20217;-40
2022/08/07 08:36:19;;;;;;;9.27;8.37;;;;;;;;;;4949925;28;21183;-42
2022/08/07 08:38:47;;;;;;;11.23;9.93;;;;;;;;;;4956171;28;20449;-41
2022/08/07 08:41:13;;;;;;;9.97;9.03;;;;;;;;;;4955234;28;20185;-44
2022/08/07 08:44:01;;;;;;;9.70;8.70;;;;;;;;;;4966975;28;20182;-42
2022/08/07 08:46:30;;;;;;;9.83;8.83;;;;;;;;;;4954192;28;20530;-42
2022/08/07 08:49:16;;;;;;;9.50;8.33;;;;;;;;;;4954555;28;20380;-43
2022/08/07 08:51:49;;;;;;;10.33;8.83;;;;;;;;;;4952292;28;21094;-43
2022/08/07 08:54:18;;;;;;;9.53;8.63;;;;;;;;;;4953965;28;20174;-43
2022/08/07 08:56:47;;;;;;;9.53;8.63;;;;;;;;;;4954679;28;20197;-44
2022/08/07 08:59:34;;;;;;;10.30;8.87;;;;;;;;;;4950395;28;20248;-43
2022/08/07 09:02:18;;;;;;;11.17;9.77;;;;;;;;;;4956162;28;20198;-44
2022/08/07 09:04:57;;;;;;;12.30;9.93;;;;;;;;;;4955898;28;20662;-43
2022/08/07 09:07:38;;;;;;;12.50;9.70;;;;;;;;;;4952727;28;20198;-43
2022/08/07 09:10:10;;;;;;;10.53;9.47;;;;;;;;;;4954453;28;20182;-42
2022/08/07 09:12:41;;;;;;;12.43;9.70;;;;;;;;;;4956878;28;20729;-43
2022/08/07 09:15:26;;;;;;;11.23;10.13;;;;;;;;;;4952367;28;20571;-43
2022/08/07 09:17:58;;;;;;;9.63;8.73;;;;;;;;;;4955435;28;20202;-44
2022/08/07 09:20:30;;;;;;;11.67;10.17;;;;;;;;;;4951813;28;20418;-44
2022/08/07 09:22:56;;;;;;;13.57;12.10;;;;;;;;;;4952790;28;20178;-43
2022/08/07 09:25:44;;;;;;;13.93;10.20;;;;;;;;;;4954408;28;20174;-44
2022/08/07 09:28:12;;;;;;;11.90;10.70;;;;;;;;;;4956407;28;21026;-43
2022/08/07 09:30:51;;;;;;;12.17;10.90;;;;;;;;;;4952667;28;20174;-43
2022/08/07 09:33:20;;;;;;;14.60;12.77;;;;;;;;;;4953049;28;20189;-44
2022/08/07 09:36:01;;;;;;;13.07;11.77;;;;;;;;;;4955817;28;20179;-44
2022/08/07 09:38:46;;;;;;;14.40;12.87;;;;;;;;;;4952020;28;20451;-44
2022/08/07 09:41:35;;;;;;;13.83;11.80;;;;;;;;;;4955795;28;20650;-44
2022/08/07 09:44:06;;;;;;;11.70;10.30;;;;;;;;;;4952631;28;20213;-44
2022/08/07 09:46:35;;;;;;;12.70;11.47;;;;;;;;;;4953591;28;20280;-44
2022/08/07 09:49:14;;;;;;;12.03;10.93;;;;;;;;;;4954419;28;20212;-44
2022/08/07 09:51:43;;;;;;;13.33;11.77;;;;;;;;;;4953626;28;20735;-44
2022/08/07 09:54:15;;;;;;;13.40;12.13;;;;;;;;;;4949289;28;20174;-44
2022/08/07 09:57:00;;;;;;;14.20;12.40;;;;;;;;;;4954025;28;20197;-45
2022/08/07 09:59:29;;;;;;;13.83;12.43;;;;;;;;;;4948391;28;20284;-45
2022/08/07 10:02:04;;;;;;;15.07;13.60;;;;;;;;;;4950508;28;20469;-45
2022/08/07 10:04:39;;;;;;;13.80;12.20;;;;;;;;;;4954543;28;20883;-45
2022/08/07 10:07:29;;;;;;;13.73;12.43;;;;;;;;;;4969824;28;20199;-45
2022/08/07 10:10:15;;;;;;;13.70;12.40;;;;;;;;;;4946712;28;20393;-45
2022/08/07 10:12:53;;;;;;;14.40;13.00;;;;;;;;;;4952967;28;20174;-44
2022/08/07 10:15:22;;;;;;;12.63;11.27;;;;;;;;;;4951840;28;20166;-45
2022/08/07 10:17:51;;;;;;;12.90;11.70;;;;;;;;;;4957687;28;20192;-45
2022/08/07 10:20:32;;;;;;;11.50;10.27;;;;;;;;;;4955156;28;20541;-45
2022/08/07 10:23:17;;;;;;;12.97;9.70;;;;;;;;;;4958088;28;20501;-44
2022/08/07 10:25:52;;;;;;;7.97;7.20;;;;;;;;;;4958534;28;20682;-43
2022/08/07 10:28:48;;;;;;;9.23;7.00;;;;;;;;;;4956008;28;20351;-45
2022/08/07 10:31:26;;;;;;;7.23;6.60;;;;;;;;;;4959188;28;20424;-45
2022/08/07 10:34:01;;;;;;;8.00;7.30;;;;;;;;;;4959759;28;20182;-45
2022/08/07 10:36:50;;;;;;;8.00;6.77;;;;;;;;;;4956920;28;20835;-45
2022/08/07 10:39:28;;;;;;;8.17;7.37;;;;;;;;;;4954834;28;20682;-45
2022/08/07 10:42:06;;;;;;;8.63;6.87;;;;;;;;;;4958511;28;20525;-45
2022/08/07 10:44:32;;;;;;;7.27;6.67;;;;;;;;;;4957449;28;20722;-45
2022/08/07 10:47:01;;;;;;;8.17;7.37;;;;;;;;;;4956383;28;20288;-45
2022/08/07 10:49:27;;;;;;;7.53;6.93;;;;;;;;;;4955055;28;20294;-44
2022/08/07 10:51:57;;;;;;;7.53;6.90;;;;;;;;;;4960420;28;20934;-45
2022/08/07 10:54:35;;;;;;;8.40;6.20;;;;;;;;;;4958160;28;20363;-45
2022/08/07 10:57:20;;;;;;;7.57;6.30;;;;;;;;;;4956287;28;20911;-45
2022/08/07 10:59:46;;;;;;;7.00;6.13;;;;;;;;;;4959819;28;20182;-45
2022/08/07 11:02:29;;;;;;;6.40;5.90;;;;;;;;;;4958562;28;20175;-45
2022/08/07 11:05:02;;;;;;;6.10;4.53;;;;;;;;;;4956301;28;20337;-45
2022/08/07 11:07:36;;;;;;;5.87;4.47;;;;;;;;;;4955385;28;20292;-45
2022/08/07 11:10:06;;;;;;;4.67;4.27;;;;;;;;;;4957995;28;20209;-45
2022/08/07 11:12:36;;;;;;;4.97;4.43;;;;;;;;;;4953084;28;20205;-45
2022/08/07 11:15:04;;;;;;;5.23;4.83;;;;;;;;;;4959148;28;20237;-45
2022/08/07 11:17:33;;;;;;;7.20;4.83;;;;;;;;;;4955350;28;20331;-44
2022/08/07 11:20:14;;;;;;;5.03;4.63;;;;;;;;;;4954541;28;20241;-45
2022/08/07 11:22:46;;;;;;;6.03;4.63;;;;;;;;;;4955681;28;20193;-44
2022/08/07 11:25:44;;;;;;;6.47;5.70;;;;;;;;;;4958108;28;20292;-43
2022/08/07 11:28:14;;;;;;;5.27;4.77;;;;;;;;;;4951180;28;20220;-45
2022/08/07 11:30:53;;;;;;;5.67;5.17;;;;;;;;;;4955495;28;20250;-44
2022/08/07 11:33:38;;;;;;;5.97;5.13;;;;;;;;;;4952690;28;20190;-44
2022/08/07 11:36:17;;;;;;;4.70;4.40;;;;;;;;;;4949643;28;20427;-44
2022/08/07 11:38:49;;;;;;;5.80;5.20;;;;;;;;;;4954601;28;20241;-44
2022/08/07 11:41:18;;;;;;;5.30;4.80;;;;;;;;;;4948649;28;20194;-44
2022/08/07 11:44:00;;;;;;;4.57;4.20;;;;;;;;;;4947103;28;20182;-44
2022/08/07 11:46:32;;;;;;;5.07;4.63;;;;;;;;;;4948749;28;20784;-44
2022/08/07 11:49:02;;;;;;;4.63;4.20;;;;;;;;;;4953064;28;20182;-44
2022/08/07 11:51:34;;;;;;;4.43;4.03;;;;;;;;;;4949677;28;20170;-44
2022/08/07 11:54:28;;;;;;;4.00;3.70;;;;;;;;;;4951725;28;20645;-44
2022/08/07 11:57:17;;;;;;;5.03;4.17;;;;;;;;;;4951883;28;20526;-44
2022/08/07 11:59:47;;;;;;;4.37;3.97;;;;;;;;;;4949589;28;20629;-43
2022/08/07 12:02:13;;;;;;;3.63;3.30;;;;;;;;;;4952142;28;20209;-43
2022/08/07 12:04:53;;;;;;;4.10;3.70;;;;;;;;;;4950944;28;20228;-44
2022/08/07 12:07:24;;;;;;;3.53;3.23;;;;;;;;;;4953720;28;20213;-44
2022/08/07 12:09:56;;;;;;;3.67;3.37;;;;;;;;;;4952604;28;20770;-44
2022/08/07 12:12:28;;;;;;;3.90;3.50;;;;;;;;;;4952485;28;20690;-44
2022/08/07 12:14:57;;;;;;;3.20;3.00;;;;;;;;;;4951743;28;20166;-44
2022/08/07 12:17:29;;;;;;;3.70;3.40;;;;;;;;;;4951526;28;20201;-44
2022/08/07 12:20:01;;;;;;;3.47;2.90;;;;;;;;;;4951414;28;20589;-44
2022/08/07 12:22:34;;;;;;;3.47;2.93;;;;;;;;;;4949177;28;20181;-44
2022/08/07 12:27:58;;;;;;;4.10;3.00;;;;;;;;;;4951816;28;20213;-43
2022/08/07 12:30:27;;;;;;;3.27;3.07;;;;;;;;;;4951088;28;20817;-44
2022/08/07 12:33:06;;;;;;;2.60;2.40;;;;;;;;;;4949715;28;20319;-46
2022/08/07 12:35:33;;;;;;;3.00;2.70;;;;;;;;;;4950415;28;20729;-44
2022/08/07 12:37:59;;;;;;;2.80;2.60;;;;;;;;;;4964861;28;20730;-44
2022/08/07 12:40:27;;;;;;;2.60;2.40;;;;;;;;;;4950089;28;20404;-44
2022/08/07 12:42:54;;;;;;;2.50;2.30;;;;;;;;;;4954818;28;20185;-44
2022/08/07 12:45:22;;;;;;;2.37;2.13;;;;;;;;;;4950243;28;20173;-44
2022/08/07 12:47:55;;;;;;;2.50;2.20;;;;;;;;;;4949790;28;20225;-44
2022/08/07 12:50:21;;;;;;;2.40;2.20;;;;;;;;;;4948720;28;20817;-44
2022/08/07 12:52:50;;;;;;;2.70;1.90;;;;;;;;;;4949485;28;20177;-44
2022/08/07 12:55:16;;;;;;;2.27;2.07;;;;;;;;;;4948017;28;20204;-44
2022/08/07 12:57:43;;;;;;;2.00;1.90;;;;;;;;;;4950865;28;20166;-43
2022/08/07 13:00:09;;;;;;;2.10;1.97;;;;;;;;;;4953932;28;20620;-44
2022/08/07 13:02:41;;;;;;;2.10;2.00;;;;;;;;;;4951916;28;20174;-45
2022/08/07 13:05:40;;;;;;;5.60;2.37;;;;;;;;;;4950744;28;20181;-44
2022/08/07 13:08:21;;;;;;;2.13;2.00;;;;;;;;;;4950391;28;20662;-44
2022/08/07 13:10:49;;;;;;;1.97;1.60;;;;;;;;;;4950408;28;20286;-44
2022/08/07 13:13:15;;;;;;;2.33;1.90;;;;;;;;;;4950466;28;20703;-43
2022/08/07 13:15:45;;;;;;;3.10;2.00;;;;;;;;;;4951551;28;20677;-44
2022/08/07 13:18:29;;;;;;;2.17;2.07;;;;;;;;;;4950902;28;20181;-44
2022/08/07 13:21:06;;;;;;;2.37;2.17;;;;;;;;;;4950359;28;20977;-44
2022/08/07 13:23:45;;;;;;;2.53;2.33;;;;;;;;;;4947679;28;20502;-44
2022/08/07 13:26:14;;;;;;;2.27;2.10;;;;;;;;;;4954200;28;20765;-44
2022/08/07 13:28:45;;;;;;;2.90;2.70;;;;;;;;;;4978388;28;20604;-44
2022/08/07 13:31:15;;;;;;;2.77;2.50;;;;;;;;;;4949322;28;20511;-45
2022/08/07 13:33:42;;;;;;;2.37;2.20;;;;;;;;;;4951900;28;21112;-43
2022/08/07 13:36:09;;;;;;;2.37;2.20;;;;;;;;;;4952197;28;20744;-44
2022/08/07 13:38:41;;;;;;;2.40;2.30;;;;;;;;;;4946489;28;20190;-44
2022/08/07 13:41:28;;;;;;;2.97;2.70;;;;;;;;;;4963925;28;20959;-44
2022/08/07 13:43:55;;;;;;;2.50;2.30;;;;;;;;;;4952126;28;20459;-44
2022/08/07 13:46:22;;;;;;;2.40;2.20;;;;;;;;;;4949168;28;20178;-45
2022/08/07 13:48:51;;;;;;;2.67;2.47;;;;;;;;;;4949570;28;20602;-45
2022/08/07 13:51:18;;;;;;;2.63;2.37;;;;;;;;;;4951194;28;20350;-45
2022/08/07 13:53:51;;;;;;;2.53;2.33;;;;;;;;;;4950300;28;20264;-44
2022/08/07 13:56:19;;;;;;;3.00;2.80;;;;;;;;;;4954800;28;20450;-45
2022/08/07 13:59:01;;;;;;;2.60;2.40;;;;;;;;;;4951204;28;20194;-44
2022/08/07 14:01:34;;;;;;;2.70;2.50;;;;;;;;;;4951763;28;20172;-44
2022/08/07 14:04:16;;;;;;;3.00;2.70;;;;;;;;;;4953488;28;20189;-44
2022/08/07 14:06:44;;;;;;;2.67;2.47;;;;;;;;;;4952917;28;20247;-44
2022/08/07 14:09:17;;;;;;;2.37;2.17;;;;;;;;;;4952122;28;20182;-45
2022/08/07 14:11:50;;;;;;;2.20;2.00;;;;;;;;;;4955805;28;20170;-43
2022/08/07 14:14:16;;;;;;;2.20;2.10;;;;;;;;;;4950686;28;20335;-44
2022/08/07 14:16:44;;;;;;;2.83;2.10;;;;;;;;;;4953166;28;20259;-44
2022/08/07 14:19:33;;;;;;;2.50;2.30;;;;;;;;;;4955199;28;20877;-44
2022/08/07 14:22:01;;;;;;;2.30;2.10;;;;;;;;;;4945554;28;20201;-44
2022/08/07 14:24:35;;;;;;;2.73;2.53;;;;;;;;;;4955632;28;20178;-45
2022/08/07 14:27:05;;;;;;;2.87;2.37;;;;;;;;;;4952644;28;20661;-44
2022/08/07 14:29:39;;;;;;;2.43;2.23;;;;;;;;;;4951180;28;20645;-44
2022/08/07 14:32:07;;;;;;;2.67;2.43;;;;;;;;;;4955758;28;20513;-44
2022/08/07 14:34:34;;;;;;;2.70;2.50;;;;;;;;;;4952768;28;20965;-44
2022/08/07 14:37:01;;;;;;;2.60;2.40;;;;;;;;;;4949631;28;20548;-44
2022/08/07 14:39:28;;;;;;;2.73;2.53;;;;;;;;;;4953916;28;21067;-44
2022/08/07 14:41:55;;;;;;;2.80;2.60;;;;;;;;;;4953003;28;20755;-44
2022/08/07 14:44:21;;;;;;;2.70;2.50;;;;;;;;;;4949758;28;20201;-44
2022/08/07 14:46:49;;;;;;;2.50;2.30;;;;;;;;;;4953205;28;20194;-44
2022/08/07 14:49:16;;;;;;;2.43;2.23;;;;;;;;;;4952535;28;20186;-44
2022/08/07 14:51:43;;;;;;;2.53;2.33;;;;;;;;;;4948664;28;20228;-44
2022/08/07 14:54:13;;;;;;;2.77;2.50;;;;;;;;;;4953986;28;20264;-44
2022/08/07 14:56:41;;;;;;;6.07;2.30;;;;;;;;;;4953391;28;20189;-44
2022/08/07 14:59:08;;;;;;;2.33;2.13;;;;;;;;;;4950279;28;20265;-44
2022/08/07 15:01:36;;;;;;;2.50;2.30;;;;;;;;;;4951027;28;20178;-44
2022/08/07 15:04:03;;;;;;;2.30;2.10;;;;;;;;;;4955731;28;20588;-45
2022/08/07 15:06:32;;;;;;;2.30;2.10;;;;;;;;;;4951390;28;20599;-45